createdAt,value
2022-08-01T00:03:03.784Z,100473.41
2022-08-01T00:08:05.596Z,100467.16
2022-08-01T00:13:07.034Z,100461.69
2022-08-01T00:18:08.508Z,100461.03
2022-08-01T00:23:09.948Z,100463.97
2022-08-01T00:28:11.400Z,100465.59
2022-08-01T00:33:13.122Z,100457.41
2022-08-01T00:38:14.700Z,100463.09
2022-08-01T00:43:16.452Z,100470.19
2022-08-01T00:48:18.049Z,100472.63
2022-08-01T00:53:19.719Z,100476.06
2022-08-01T00:58:24.130Z,100465.16
2022-08-01T01:09:06.953Z,100465.69
2022-08-01T01:14:20.071Z,100464.50
2022-08-01T01:19:25.433Z,100465.31
2022-08-01T01:24:50.241Z,100465.50
2022-08-01T01:30:00.253Z,100467.97
2022-08-01T01:35:36.602Z,100466.16
2022-08-01T01:40:39.252Z,100475.72
2022-08-01T01:45:42.365Z,100475.53
2022-08-01T01:50:47.105Z,100476.09
2022-08-01T01:55:54.305Z,100484.63
2022-08-01T02:00:59.579Z,100476.84
2022-08-01T02:06:05.152Z,100482.53
2022-08-01T02:11:07.385Z,100479.38
2022-08-01T02:16:09.961Z,100487.69
2022-08-01T02:21:17.327Z,100484.13
2022-08-01T02:26:19.409Z,100481.56
2022-08-01T02:31:23.093Z,100484.31
2022-08-01T02:36:30.016Z,100486.75
2022-08-01T02:41:37.025Z,100490.31
2022-08-01T02:46:52.770Z,100487.56
2022-08-01T02:51:56.839Z,100486.94
2022-08-01T02:56:59.498Z,100479.66
2022-08-01T03:02:03.502Z,100481.06
2022-08-01T03:07:07.186Z,100484.13
2022-08-01T03:12:14.087Z,100472.41
2022-08-01T03:17:17.943Z,100483.75
2022-08-01T03:22:22.222Z,100483.53
2022-08-01T03:27:25.259Z,100483.66
2022-08-01T03:32:29.390Z,100490.50
2022-08-01T03:37:37.774Z,100481.28
2022-08-01T03:42:49.342Z,100491.34
2022-08-01T03:47:56.648Z,100488.69
2022-08-01T03:52:59.932Z,100490.59
2022-08-01T03:58:04.205Z,100482.22
2022-08-01T04:03:13.921Z,100485.75
2022-08-01T04:08:15.373Z,100479.13
2022-08-01T04:13:16.914Z,100480.75
2022-08-01T04:18:18.733Z,100487.44
2022-08-01T04:23:25.633Z,100490.13
2022-08-01T04:28:27.852Z,100498.25
2022-08-01T04:33:32.402Z,100495.59
2022-08-01T04:38:35.899Z,100506.34
2022-08-01T04:43:40.595Z,100511.56
2022-08-01T04:48:42.487Z,100516.56
2022-08-01T04:53:45.411Z,100525.78
2022-08-01T04:58:47.408Z,100519.22
2022-08-01T05:03:48.940Z,100519.47
2022-08-01T05:08:50.451Z,100514.56
2022-08-01T05:13:51.975Z,100518.34
2022-08-01T05:18:53.443Z,100522.53
2022-08-01T05:23:54.974Z,100523.06
2022-08-01T05:28:56.472Z,100532.94
2022-08-01T05:33:57.936Z,100533.16
2022-08-01T05:38:59.738Z,100529.09
2022-08-01T05:44:01.208Z,100543.78
2022-08-01T05:49:04.499Z,100540.53
2022-08-01T05:54:06.035Z,100545.47
2022-08-01T05:59:07.735Z,100548.81
2022-08-01T06:04:09.215Z,100550.22
2022-08-01T06:09:10.680Z,100562.06
2022-08-01T06:14:12.282Z,100567.09
2022-08-01T06:19:13.815Z,100579.69
2022-08-01T06:24:15.269Z,100576.72
2022-08-01T06:29:16.880Z,100571.41
2022-08-01T06:34:18.425Z,100567.84
2022-08-01T06:39:19.971Z,100567.88
2022-08-01T06:44:21.449Z,100567.50
2022-08-01T06:49:22.936Z,100556.88
2022-08-01T06:54:24.663Z,100550.91
2022-08-01T06:59:26.161Z,100566.19
2022-08-01T07:04:27.717Z,100561.84
2022-08-01T07:09:29.533Z,100554.91
2022-08-01T07:14:31.163Z,100557.47
2022-08-01T07:19:32.694Z,100556.88
2022-08-01T07:24:34.198Z,100556.81
2022-08-01T07:29:37.302Z,100562.44
2022-08-01T07:34:38.850Z,100565.78
2022-08-01T07:39:40.371Z,100559.03
2022-08-01T07:44:42.050Z,100561.09
2022-08-01T07:49:43.676Z,100566.09
2022-08-01T07:54:49.201Z,100566.72
2022-08-01T07:59:53.447Z,100561.38
2022-08-01T08:04:55.009Z,100564.56
2022-08-01T08:09:56.969Z,100566.09
2022-08-01T08:14:58.930Z,100571.59
2022-08-01T08:20:00.410Z,100568.78
2022-08-01T08:25:01.908Z,100569.28
2022-08-01T08:30:05.573Z,100567.69
2022-08-01T08:35:08.355Z,100558.28
2022-08-01T08:40:13.598Z,100560.81
2022-08-01T08:45:15.167Z,100559.38
2022-08-01T08:50:17.352Z,100551.44
2022-08-01T08:55:19.947Z,100545.97
2022-08-01T09:00:21.670Z,100547.69
2022-08-01T09:05:24.741Z,100545.44
2022-08-01T09:10:39.955Z,100540.47
2022-08-01T09:15:44.152Z,100533.31
2022-08-01T09:20:45.795Z,100541.19
2022-08-01T09:25:56.721Z,100545.00
2022-08-01T09:31:07.025Z,100545.00
2022-08-01T09:36:13.122Z,100542.03
2022-08-01T09:41:15.032Z,100546.53
2022-08-01T09:46:17.080Z,100545.56
2022-08-01T09:51:58.867Z,100546.47
2022-08-01T09:57:12.456Z,100552.00
2022-08-01T10:02:26.759Z,100539.19
2022-08-01T10:07:43.091Z,100549.78
2022-08-01T10:12:45.999Z,100538.13
2022-08-01T10:17:54.529Z,100529.53
2022-08-01T10:23:07.979Z,100523.25
2022-08-01T10:28:15.486Z,100528.59
2022-08-01T10:33:52.042Z,100518.47
2022-08-01T10:38:44.969Z,100517.03
2022-08-01T10:43:46.942Z,100519.50
2022-08-01T10:48:54.678Z,100513.84
2022-08-01T10:53:56.958Z,100499.78
2022-08-01T10:59:06.433Z,100495.03
2022-08-01T11:04:18.455Z,100487.41
2022-08-01T11:09:36.561Z,100485.19
2022-08-01T11:15:00.520Z,100493.56
2022-08-01T11:20:15.049Z,100492.53
2022-08-01T11:25:16.823Z,100496.66
2022-08-01T11:30:20.067Z,100493.72
2022-08-01T11:35:25.833Z,100483.31
2022-08-01T11:40:29.190Z,100474.94
2022-08-01T11:45:51.478Z,100465.44
2022-08-01T11:50:57.361Z,100476.31
2022-08-01T11:55:59.208Z,100472.38
2022-08-01T12:01:00.692Z,100470.53
2022-08-01T12:06:02.436Z,100471.00
2022-08-01T12:11:06.955Z,100474.78
2022-08-01T12:16:09.837Z,100464.81
2022-08-01T12:21:11.368Z,100467.44
2022-08-01T12:26:25.789Z,100474.28
2022-08-01T12:31:35.440Z,100486.19
2022-08-01T12:36:37.078Z,100483.38
2022-08-01T12:41:38.793Z,100489.19
2022-08-01T12:46:44.279Z,100493.47
2022-08-01T12:51:46.298Z,100490.84
2022-08-01T12:56:59.317Z,100501.88
2022-08-01T13:02:09.538Z,100501.69
2022-08-01T13:07:11.193Z,100492.22
2022-08-01T13:12:12.994Z,100498.28
2022-08-01T13:17:30.941Z,100496.19
2022-08-01T13:22:36.837Z,100490.13
2022-08-01T13:27:39.523Z,100478.31
2022-08-01T13:33:01.426Z,100487.06
2022-08-01T13:38:03.061Z,100477.88
2022-08-01T13:43:04.489Z,100481.38
2022-08-01T13:48:12.693Z,100481.34
2022-08-01T13:53:19.981Z,100481.06
2022-08-01T13:58:21.447Z,100481.75
2022-08-01T14:03:33.505Z,100488.13
2022-08-01T14:08:35.707Z,100479.97
2022-08-01T14:13:37.863Z,100476.16
2022-08-01T14:18:46.790Z,100484.00
2022-08-01T14:23:48.495Z,100482.06
2022-08-01T14:28:50.312Z,100478.00
2022-08-01T14:33:51.910Z,100475.06
2022-08-01T14:38:53.374Z,100479.78
2022-08-01T14:43:54.931Z,100479.41
2022-08-01T14:48:56.417Z,100472.44
2022-08-01T14:53:57.938Z,100471.63
2022-08-01T14:58:59.465Z,100489.34
2022-08-01T15:04:01.008Z,100497.94
2022-08-01T15:09:08.138Z,100491.41
2022-08-01T15:14:10.992Z,100502.06
2022-08-01T15:19:12.441Z,100518.72
2022-08-01T15:24:13.913Z,100515.63
2022-08-01T15:29:15.408Z,100512.94
2022-08-01T15:34:16.919Z,100527.50
2022-08-01T15:39:18.461Z,100523.69
2022-08-01T15:44:20.094Z,100531.91
2022-08-01T15:49:21.680Z,100534.13
2022-08-01T15:54:23.742Z,100530.94
2022-08-01T15:59:26.057Z,100539.81
2022-08-01T16:04:29.917Z,100534.97
2022-08-01T16:09:31.854Z,100542.09
2022-08-01T16:14:33.371Z,100537.38
2022-08-01T16:19:34.864Z,100526.34
2022-08-01T16:24:36.426Z,100527.69
2022-08-01T16:29:37.878Z,100531.44
2022-08-01T16:34:41.400Z,100525.09
2022-08-01T16:39:48.373Z,100523.75
2022-08-01T16:44:49.856Z,100519.28
2022-08-01T16:49:51.333Z,100510.16
2022-08-01T16:54:52.870Z,100511.13
2022-08-01T16:59:54.391Z,100520.31
2022-08-01T17:04:55.919Z,100518.84
2022-08-01T17:09:57.428Z,100514.94
2022-08-01T17:14:59.564Z,100517.31
2022-08-01T17:20:01.093Z,100515.25
2022-08-01T17:25:03.009Z,100516.59
2022-08-01T17:30:06.200Z,100516.97
2022-08-01T17:35:08.991Z,100511.91
2022-08-01T17:40:38.599Z,100520.69
2022-08-01T17:45:38.108Z,100510.78
2022-08-01T17:50:52.005Z,100515.41
2022-08-01T17:55:57.179Z,100521.91
2022-08-01T18:01:19.958Z,100530.59
2022-08-01T18:06:23.223Z,100531.72
2022-08-01T18:11:27.233Z,100533.63
2022-08-01T18:16:29.193Z,100530.59
2022-08-01T18:21:30.857Z,100534.56
2022-08-01T18:26:32.421Z,100540.63
2022-08-01T18:31:34.423Z,100542.75
2022-08-01T18:36:36.115Z,100546.16
2022-08-01T18:41:41.915Z,100552.41
2022-08-01T18:46:43.545Z,100555.34
2022-08-01T18:51:45.248Z,100558.91
2022-08-01T18:56:46.934Z,100563.31
2022-08-01T19:01:48.601Z,100565.97
2022-08-01T19:06:50.223Z,100567.22
2022-08-01T19:11:51.759Z,100584.59
2022-08-01T19:16:53.232Z,100587.03
2022-08-01T19:21:55.221Z,100597.63
2022-08-01T19:26:59.352Z,100598.84
2022-08-01T19:32:09.973Z,100607.78
2022-08-01T19:37:12.102Z,100616.22
2022-08-01T19:42:14.545Z,100622.41
2022-08-01T19:47:17.597Z,100628.97
2022-08-01T19:52:24.529Z,100629.16
2022-08-01T19:57:26.732Z,100640.28
2022-08-01T20:02:47.235Z,100635.44
2022-08-01T20:07:50.701Z,100642.38
2022-08-01T20:12:53.720Z,100644.66
2022-08-01T20:17:57.792Z,100646.34
2022-08-01T20:22:59.247Z,100654.81
2022-08-01T20:28:00.798Z,100655.06
2022-08-01T20:33:02.775Z,100662.81
2022-08-01T20:38:07.130Z,100674.94
2022-08-01T20:43:09.628Z,100678.34
2022-08-01T20:48:11.891Z,100683.63
2022-08-01T20:53:13.404Z,100684.84
2022-08-01T20:58:27.301Z,100693.53
2022-08-01T21:03:40.909Z,100688.38
2022-08-01T21:08:44.586Z,100684.59
2022-08-01T21:13:46.543Z,100684.19
2022-08-01T21:19:19.066Z,100679.41
2022-08-01T21:24:26.694Z,100693.03
2022-08-01T21:29:28.911Z,100698.56
2022-08-01T21:34:30.658Z,100700.97
2022-08-01T21:39:32.794Z,100699.97
2022-08-01T21:44:35.314Z,100706.63
2022-08-01T21:49:37.105Z,100711.41
2022-08-01T21:54:48.791Z,100714.09
2022-08-01T22:00:24.958Z,100717.34
2022-08-01T22:05:50.561Z,100711.03
2022-08-01T22:10:57.351Z,100718.75
2022-08-01T22:15:59.067Z,100717.91
2022-08-01T22:21:02.455Z,100722.78
2022-08-01T22:26:09.480Z,100718.91
2022-08-01T22:31:11.107Z,100715.03
2022-08-01T22:36:13.996Z,100725.13
2022-08-01T22:41:24.975Z,100736.84
2022-08-01T22:46:35.094Z,100728.50
2022-08-01T22:51:54.867Z,100727.94
2022-08-01T22:57:01.396Z,100730.41
2022-08-01T23:02:11.676Z,100733.16
2022-08-01T23:07:19.039Z,100741.56
2022-08-01T23:12:22.863Z,100747.50
2022-08-01T23:17:28.773Z,100747.97
2022-08-01T23:22:34.195Z,100747.19
2022-08-01T23:27:51.501Z,100744.38
2022-08-01T23:33:03.953Z,100746.53
2022-08-01T23:38:06.402Z,100746.88
2022-08-01T23:43:16.190Z,100745.28
2022-08-01T23:48:19.274Z,100744.47
2022-08-01T23:53:20.842Z,100743.09
2022-08-01T23:58:22.523Z,100739.81
